createdAt,value
2023-05-19T00:01:25.115Z,7.07
2023-05-19T00:03:54.754Z,6.55
2023-05-19T00:06:27.289Z,5.97
2023-05-19T00:09:06.097Z,5.62
2023-05-19T00:11:36.344Z,4.25
2023-05-19T00:16:32.382Z,3.03
2023-05-19T00:19:00.854Z,3.03
2023-05-19T00:21:29.516Z,3.03
2023-05-19T00:23:56.768Z,2.80
2023-05-19T00:26:24.952Z,2.80
2023-05-19T00:28:54.462Z,2.87
2023-05-19T00:31:21.851Z,2.70
2023-05-19T00:33:49.279Z,2.30
2023-05-19T00:36:16.803Z,2.58
2023-05-19T00:38:44.013Z,2.50
2023-05-19T00:41:11.933Z,2.35
2023-05-19T00:43:39.429Z,2.25
2023-05-19T00:46:07.596Z,2.20
2023-05-19T00:48:35.257Z,2.70
2023-05-19T00:51:05.292Z,2.50
2023-05-19T00:53:34.090Z,2.40
2023-05-19T00:56:02.449Z,2.85
2023-05-19T00:58:32.675Z,2.45
2023-05-19T01:01:06.968Z,2.40
2023-05-19T01:03:36.269Z,2.80
2023-05-19T01:06:07.943Z,2.40
2023-05-19T01:08:39.461Z,2.78
2023-05-19T01:11:07.337Z,2.65
2023-05-19T01:13:35.931Z,3.17
2023-05-19T01:16:32.308Z,2.85
2023-05-19T01:19:21.217Z,2.70
2023-05-19T01:21:54.084Z,3.28
2023-05-19T01:24:53.504Z,3.85
2023-05-19T01:27:43.347Z,3.17
2023-05-19T01:30:17.014Z,3.15
2023-05-19T01:32:45.723Z,3.30
2023-05-19T01:35:14.439Z,3.35
2023-05-19T01:37:41.706Z,3.20
2023-05-19T01:40:11.036Z,3.22
2023-05-19T01:42:40.108Z,3.30
2023-05-19T01:45:11.244Z,2.90
2023-05-19T01:47:42.998Z,3.40
2023-05-19T01:50:11.238Z,3.12
2023-05-19T01:52:38.887Z,2.90
2023-05-19T01:55:06.905Z,2.75
2023-05-19T01:57:53.834Z,2.85
2023-05-19T02:00:35.081Z,3.10
2023-05-19T02:03:12.035Z,3.28
2023-05-19T02:06:07.262Z,2.97
2023-05-19T02:09:04.333Z,2.83
2023-05-19T02:12:07.489Z,3.17
2023-05-19T02:14:44.109Z,2.70
2023-05-19T02:17:13.433Z,3.40
2023-05-19T02:19:41.206Z,3.12
2023-05-19T02:22:08.634Z,3.12
2023-05-19T02:24:37.719Z,3.30
2023-05-19T02:27:05.478Z,3.75
2023-05-19T02:29:33.036Z,3.25
2023-05-19T02:32:01.562Z,2.95
2023-05-19T02:34:28.920Z,3.87
2023-05-19T02:36:57.783Z,2.75
2023-05-19T02:39:25.034Z,3.65
2023-05-19T02:41:52.214Z,3.80
2023-05-19T02:44:19.855Z,3.65
2023-05-19T02:46:47.168Z,3.30
2023-05-19T02:49:14.952Z,3.97
2023-05-19T02:51:42.646Z,3.65
2023-05-19T02:54:10.093Z,2.97
2023-05-19T02:56:37.280Z,3.50
2023-05-19T02:59:04.832Z,3.58
2023-05-19T03:01:32.823Z,3.60
2023-05-19T03:04:00.289Z,3.95
2023-05-19T03:06:28.316Z,3.37
2023-05-19T03:08:55.669Z,3.55
2023-05-19T03:11:23.359Z,3.20
2023-05-19T03:13:50.819Z,3.50
2023-05-19T03:16:18.099Z,3.60
2023-05-19T03:18:46.027Z,4.65
2023-05-19T03:21:13.472Z,4.62
2023-05-19T03:23:40.645Z,3.85
2023-05-19T03:26:07.932Z,3.92
2023-05-19T03:28:35.597Z,3.60
2023-05-19T03:31:03.171Z,3.65
2023-05-19T03:33:32.616Z,4.75
2023-05-19T03:36:00.174Z,3.95
2023-05-19T03:38:28.597Z,4.22
2023-05-19T03:40:56.276Z,3.92
2023-05-19T03:43:23.762Z,4.00
2023-05-19T03:45:51.834Z,4.28
2023-05-19T03:48:21.454Z,5.15
2023-05-19T03:50:50.950Z,4.90
2023-05-19T03:53:18.467Z,4.97
2023-05-19T03:55:46.395Z,4.32
2023-05-19T03:58:14.699Z,3.58
2023-05-19T04:00:42.496Z,4.07
2023-05-19T04:03:10.190Z,3.78
2023-05-19T04:05:37.596Z,3.80
2023-05-19T04:08:04.976Z,3.28
2023-05-19T04:10:32.726Z,3.60
2023-05-19T04:13:00.151Z,3.60
2023-05-19T04:15:27.561Z,4.05
2023-05-19T04:17:56.324Z,4.75
2023-05-19T04:20:23.696Z,4.28
2023-05-19T04:22:51.133Z,4.20
2023-05-19T04:25:20.319Z,3.47
2023-05-19T04:27:48.941Z,3.22
2023-05-19T04:30:22.498Z,3.60
2023-05-19T04:32:54.041Z,3.80
2023-05-19T04:35:21.388Z,3.45
2023-05-19T04:37:49.201Z,4.70
2023-05-19T04:40:17.506Z,3.50
2023-05-19T04:42:46.189Z,3.75
2023-05-19T04:45:14.192Z,3.67
2023-05-19T04:47:42.509Z,4.00
2023-05-19T04:50:11.456Z,3.40
2023-05-19T04:52:38.589Z,4.10
2023-05-19T04:55:06.652Z,4.03
2023-05-19T04:57:33.922Z,3.37
2023-05-19T05:00:01.801Z,3.80
2023-05-19T05:02:32.301Z,3.83
2023-05-19T05:05:01.748Z,4.15
2023-05-19T05:07:31.593Z,4.45
2023-05-19T05:12:27.763Z,4.03
2023-05-19T05:14:55.788Z,4.43
2023-05-19T05:17:23.204Z,4.60
2023-05-19T05:19:50.842Z,4.07
2023-05-19T05:22:18.773Z,3.67
2023-05-19T05:24:46.728Z,3.65
2023-05-19T05:27:14.627Z,4.05
2023-05-19T05:29:42.736Z,3.75
2023-05-19T05:32:10.407Z,4.40
2023-05-19T05:34:39.982Z,4.22
2023-05-19T05:37:07.510Z,4.47
2023-05-19T05:39:35.287Z,3.55
2023-05-19T05:42:02.669Z,4.82
2023-05-19T05:44:30.822Z,4.03
2023-05-19T05:46:58.549Z,4.37
2023-05-19T05:49:26.624Z,3.80
2023-05-19T05:52:05.556Z,3.42
2023-05-19T05:54:34.724Z,3.92
2023-05-19T05:57:03.477Z,3.53
2023-05-19T05:59:30.818Z,3.40
2023-05-19T06:01:58.286Z,3.62
2023-05-19T06:04:26.030Z,3.60
2023-05-19T06:06:57.106Z,3.83
2023-05-19T06:09:25.289Z,4.15
2023-05-19T06:11:52.854Z,3.37
2023-05-19T06:14:20.432Z,3.40
2023-05-19T06:16:48.452Z,4.00
2023-05-19T06:19:16.527Z,4.30
2023-05-19T06:21:44.628Z,3.20
2023-05-19T06:24:12.518Z,3.50
2023-05-19T06:26:40.168Z,4.03
2023-05-19T06:29:07.565Z,3.25
2023-05-19T06:31:34.837Z,3.50
2023-05-19T06:34:03.707Z,3.67
2023-05-19T06:36:31.489Z,4.10
2023-05-19T06:39:01.338Z,4.05
2023-05-19T06:41:31.315Z,4.05
2023-05-19T06:43:58.750Z,4.30
2023-05-19T06:46:26.045Z,3.90
2023-05-19T06:48:53.612Z,4.40
2023-05-19T06:51:22.485Z,3.50
2023-05-19T06:53:50.492Z,3.80
2023-05-19T06:56:19.084Z,2.90
2023-05-19T06:58:46.494Z,3.47
2023-05-19T07:01:13.732Z,4.03
2023-05-19T07:03:42.083Z,3.42
2023-05-19T07:06:09.501Z,3.30
2023-05-19T07:08:37.426Z,3.80
2023-05-19T07:11:05.373Z,3.37
2023-05-19T07:13:33.096Z,4.07
2023-05-19T07:16:00.400Z,3.80
2023-05-19T07:18:31.902Z,4.20
2023-05-19T07:21:14.921Z,3.55
2023-05-19T07:23:42.456Z,3.37
2023-05-19T07:26:09.651Z,4.03
2023-05-19T07:28:37.772Z,3.90
2023-05-19T07:31:06.923Z,3.92
2023-05-19T07:33:34.171Z,4.15
2023-05-19T07:36:01.454Z,4.43
2023-05-19T07:38:31.568Z,3.90
2023-05-19T07:40:58.932Z,3.67
2023-05-19T07:43:26.254Z,3.40
2023-05-19T07:45:56.396Z,3.80
2023-05-19T07:48:25.776Z,3.47
2023-05-19T07:50:53.337Z,4.05
2023-05-19T07:53:22.724Z,4.10
2023-05-19T07:58:17.983Z,3.62
2023-05-19T08:00:46.334Z,3.53
2023-05-19T08:03:17.988Z,3.62
2023-05-19T08:05:46.088Z,3.28
2023-05-19T08:08:16.767Z,3.15
2023-05-19T08:10:44.277Z,3.87
2023-05-19T08:13:11.534Z,3.58
2023-05-19T08:15:39.461Z,3.62
2023-05-19T08:18:06.830Z,3.40
2023-05-19T08:20:34.618Z,3.17
2023-05-19T08:23:02.438Z,3.20
2023-05-19T08:25:29.618Z,3.60
2023-05-19T08:27:56.940Z,5.30
2023-05-19T08:30:24.536Z,3.15
2023-05-19T08:32:51.944Z,3.28
2023-05-19T08:35:21.870Z,3.12
2023-05-19T08:37:49.338Z,3.05
2023-05-19T08:40:18.435Z,2.58
2023-05-19T08:42:46.327Z,12.00
2023-05-19T08:45:13.967Z,3.05
2023-05-19T08:47:46.540Z,3.70
2023-05-19T08:50:18.204Z,3.12
2023-05-19T08:52:53.778Z,4.75
2023-05-19T08:55:37.317Z,4.25
2023-05-19T08:58:05.110Z,3.25
2023-05-19T09:00:33.385Z,2.78
2023-05-19T09:03:17.378Z,2.80
2023-05-19T09:09:16.168Z,3.70
2023-05-19T09:15:17.974Z,2.72
2023-05-19T09:17:48.227Z,3.40
2023-05-19T09:20:17.451Z,3.40
2023-05-19T09:22:48.300Z,3.35
2023-05-19T09:25:36.039Z,3.33
2023-05-19T09:28:07.720Z,3.42
2023-05-19T09:30:47.258Z,11.67
2023-05-19T09:33:19.972Z,4.72
2023-05-19T09:35:48.309Z,3.28
2023-05-19T09:38:19.646Z,7.18
2023-05-19T09:40:50.049Z,4.25
2023-05-19T09:43:17.976Z,3.62
2023-05-19T09:45:45.452Z,4.97
2023-05-19T09:48:14.795Z,2.95
2023-05-19T09:50:45.620Z,3.60
2023-05-19T09:53:14.414Z,3.15
2023-05-19T09:55:42.986Z,3.40
2023-05-19T09:58:12.582Z,3.62
2023-05-19T10:00:40.437Z,3.42
2023-05-19T10:03:09.305Z,4.40
2023-05-19T10:05:36.912Z,4.80
2023-05-19T10:08:10.613Z,4.60
2023-05-19T10:10:39.128Z,3.33
2023-05-19T10:13:07.172Z,3.42
2023-05-19T10:15:40.809Z,5.43
2023-05-19T10:24:13.396Z,3.78
2023-05-19T10:26:48.249Z,3.42
2023-05-19T10:29:19.480Z,3.20
2023-05-19T10:31:48.206Z,3.87
2023-05-19T10:34:50.595Z,4.20
2023-05-19T10:37:29.619Z,3.45
2023-05-19T10:39:57.959Z,3.75
2023-05-19T10:43:02.333Z,3.53
2023-05-19T10:45:31.938Z,4.10
2023-05-19T10:47:59.873Z,11.50
2023-05-19T10:50:27.321Z,5.72
2023-05-19T10:52:56.313Z,4.47
2023-05-19T10:55:47.685Z,4.78
2023-05-19T10:58:14.941Z,4.75
2023-05-19T11:00:42.424Z,5.20
2023-05-19T11:03:36.283Z,7.70
2023-05-19T11:06:25.150Z,4.82
2023-05-19T11:08:54.870Z,5.85
2023-05-19T11:11:23.617Z,5.18
2023-05-19T11:13:52.974Z,5.32
2023-05-19T11:16:30.680Z,6.37
2023-05-19T11:19:02.090Z,5.87
2023-05-19T11:21:46.685Z,4.82
2023-05-19T11:24:40.148Z,6.05
2023-05-19T11:27:33.362Z,6.05
2023-05-19T11:30:20.214Z,6.55
2023-05-19T11:32:48.542Z,7.57
2023-05-19T11:35:19.270Z,7.70
2023-05-19T11:37:48.854Z,6.30
2023-05-19T11:40:19.671Z,6.95
2023-05-19T11:42:47.247Z,6.55
2023-05-19T11:45:14.472Z,7.72
2023-05-19T11:48:00.275Z,7.72
2023-05-19T11:50:29.130Z,6.32
2023-05-19T11:52:57.882Z,7.20
2023-05-19T11:55:25.473Z,6.00
2023-05-19T11:58:04.048Z,5.43
2023-05-19T12:00:40.402Z,6.82
2023-05-19T12:03:09.565Z,8.25
2023-05-19T12:05:42.794Z,8.07
2023-05-19T12:08:12.017Z,8.40
2023-05-19T12:10:40.479Z,7.25
2023-05-19T12:13:12.151Z,6.82
2023-05-19T12:15:41.351Z,5.45
2023-05-19T12:18:08.746Z,5.32
2023-05-19T12:20:36.601Z,5.32
2023-05-19T12:23:04.863Z,5.05
2023-05-19T12:25:32.870Z,6.37
2023-05-19T12:28:04.936Z,5.70
2023-05-19T12:30:35.997Z,6.47
2023-05-19T12:33:03.748Z,5.72
2023-05-19T12:35:36.297Z,5.43
2023-05-19T12:38:05.125Z,5.75
2023-05-19T12:40:37.737Z,5.32
2023-05-19T12:43:06.924Z,4.65
2023-05-19T12:45:38.352Z,4.90
2023-05-19T12:48:11.215Z,4.25
2023-05-19T12:50:38.694Z,16.27
2023-05-19T12:53:09.306Z,4.62
2023-05-19T12:55:44.104Z,16.05
2023-05-19T12:58:12.395Z,5.93
2023-05-19T13:00:49.902Z,4.80
2023-05-19T13:03:19.832Z,8.55
2023-05-19T13:05:54.023Z,4.00
2023-05-19T13:08:26.645Z,4.93
2023-05-19T13:10:54.427Z,4.30
2023-05-19T13:13:23.217Z,5.07
2023-05-19T13:15:50.467Z,4.82
2023-05-19T13:18:24.931Z,4.45
2023-05-19T13:20:57.638Z,5.05
2023-05-19T13:23:25.854Z,7.20
2023-05-19T13:25:53.464Z,5.25
2023-05-19T13:28:20.953Z,4.82
2023-05-19T13:30:49.707Z,5.37
2023-05-19T13:33:20.221Z,4.30
2023-05-19T13:35:50.223Z,4.70
2023-05-19T13:38:17.840Z,3.80
2023-05-19T13:40:45.763Z,5.68
2023-05-19T13:43:13.170Z,13.07
2023-05-19T13:45:42.903Z,5.40
2023-05-19T13:48:11.940Z,6.18
2023-05-19T13:50:39.269Z,5.87
2023-05-19T13:53:06.753Z,4.50
2023-05-19T13:55:34.048Z,4.65
2023-05-19T13:58:01.414Z,4.43
2023-05-19T14:00:29.056Z,3.53
2023-05-19T14:02:56.774Z,3.65
2023-05-19T14:05:24.116Z,5.55
2023-05-19T14:07:51.822Z,4.95
2023-05-19T14:10:19.394Z,5.05
2023-05-19T14:13:14.170Z,3.75
2023-05-19T14:15:37.934Z,3.60
2023-05-19T14:18:06.673Z,3.12
2023-05-19T14:20:39.193Z,5.25
2023-05-19T14:23:10.532Z,6.05
2023-05-19T14:25:39.407Z,3.30
2023-05-19T14:28:06.734Z,3.72
2023-05-19T14:30:36.308Z,4.22
2023-05-19T14:33:04.034Z,3.60
2023-05-19T14:35:31.304Z,3.55
2023-05-19T14:37:58.900Z,5.50
2023-05-19T14:40:26.658Z,6.75
2023-05-19T14:42:55.029Z,3.65
2023-05-19T14:45:22.230Z,4.28
2023-05-19T14:47:49.964Z,3.28
2023-05-19T14:50:17.258Z,3.85
2023-05-19T14:52:44.742Z,3.53
2023-05-19T14:55:12.266Z,3.55
2023-05-19T14:57:39.518Z,4.45
2023-05-19T15:00:09.327Z,4.00
2023-05-19T15:02:36.836Z,3.55
2023-05-19T15:05:04.644Z,3.83
2023-05-19T15:07:32.013Z,4.70
2023-05-19T15:09:59.856Z,3.22
2023-05-19T15:12:29.557Z,3.12
2023-05-19T15:14:56.922Z,9.18
2023-05-19T15:17:24.447Z,4.25
2023-05-19T15:19:51.850Z,3.97
2023-05-19T15:22:19.192Z,3.60
2023-05-19T15:24:46.860Z,3.92
2023-05-19T15:27:14.133Z,3.00
2023-05-19T15:29:41.356Z,4.05
2023-05-19T15:32:09.039Z,3.22
2023-05-19T15:34:36.540Z,3.33
2023-05-19T15:37:04.086Z,3.67
2023-05-19T15:39:32.392Z,3.15
2023-05-19T15:41:59.749Z,5.82
2023-05-19T15:44:28.939Z,9.25
2023-05-19T15:46:57.106Z,5.00
2023-05-19T15:49:27.570Z,14.25
2023-05-19T15:51:54.925Z,37.85
2023-05-19T15:54:22.564Z,3.97
2023-05-19T15:56:49.868Z,7.85
2023-05-19T15:59:17.308Z,3.95
2023-05-19T16:01:45.097Z,6.18
2023-05-19T16:04:12.775Z,3.90
2023-05-19T16:06:40.050Z,8.10
2023-05-19T16:09:07.270Z,4.65
2023-05-19T16:11:34.825Z,3.62
2023-05-19T16:14:02.006Z,3.37
2023-05-19T16:16:37.524Z,4.65
2023-05-19T16:19:05.202Z,4.22
2023-05-19T16:21:43.656Z,5.00
2023-05-19T16:24:11.276Z,3.58
2023-05-19T16:26:38.604Z,3.72
2023-05-19T16:29:06.047Z,3.90
2023-05-19T16:31:36.313Z,3.45
2023-05-19T16:34:03.891Z,4.50
2023-05-19T16:36:31.984Z,4.90
2023-05-19T16:39:01.818Z,3.67
2023-05-19T16:41:29.125Z,4.75
2023-05-19T16:43:56.388Z,4.95
2023-05-19T16:46:24.152Z,4.82
2023-05-19T16:48:51.846Z,6.18
2023-05-19T16:51:19.199Z,4.15
2023-05-19T16:53:47.829Z,4.15
2023-05-19T16:56:15.150Z,4.40
2023-05-19T16:58:42.406Z,3.58
2023-05-19T17:01:12.088Z,4.15
2023-05-19T17:03:39.485Z,3.87
2023-05-19T17:06:06.808Z,3.95
2023-05-19T17:08:34.475Z,4.45
2023-05-19T17:11:01.915Z,3.72
2023-05-19T17:13:33.867Z,4.07
2023-05-19T17:16:02.584Z,3.90
2023-05-19T17:18:31.395Z,4.28
2023-05-19T17:21:03.905Z,3.20
2023-05-19T17:23:32.598Z,8.52
2023-05-19T17:26:00.551Z,10.23
2023-05-19T17:28:30.974Z,9.70
2023-05-19T17:30:58.934Z,8.05
2023-05-19T17:33:26.432Z,9.25
2023-05-19T17:35:53.769Z,7.28
2023-05-19T17:38:23.912Z,5.05
2023-05-19T17:40:51.189Z,7.07
2023-05-19T17:43:18.465Z,7.68
2023-05-19T17:45:46.039Z,6.10
2023-05-19T17:48:13.476Z,5.70
2023-05-19T17:50:40.851Z,4.45
2023-05-19T17:53:08.927Z,4.40
2023-05-19T17:55:36.553Z,4.45
2023-05-19T17:58:04.177Z,4.93
2023-05-19T18:00:32.154Z,4.75
2023-05-19T18:03:01.939Z,4.50
2023-05-19T18:05:33.417Z,4.67
2023-05-19T18:08:05.140Z,5.10
2023-05-19T18:10:36.607Z,5.62
2023-05-19T18:13:05.430Z,5.50
2023-05-19T18:15:33.069Z,5.15
2023-05-19T18:18:02.521Z,6.45
2023-05-19T18:20:31.212Z,6.12
2023-05-19T18:22:58.665Z,7.10
2023-05-19T18:25:26.385Z,6.30
2023-05-19T18:27:55.927Z,5.55
2023-05-19T18:30:23.654Z,6.62
2023-05-19T18:32:51.005Z,7.78
2023-05-19T18:35:20.852Z,16.08
2023-05-19T18:37:48.171Z,12.10
2023-05-19T18:40:15.447Z,10.40
2023-05-19T18:42:43.263Z,8.63
2023-05-19T18:45:20.298Z,9.52
2023-05-19T18:47:48.251Z,7.60
2023-05-19T18:50:16.718Z,7.55
2023-05-19T18:52:44.067Z,7.97
2023-05-19T18:55:11.662Z,7.12
2023-05-19T18:57:38.981Z,7.95
2023-05-19T19:00:07.033Z,9.32
2023-05-19T19:02:34.671Z,9.65
2023-05-19T19:05:04.136Z,10.15
2023-05-19T19:07:31.901Z,11.23
2023-05-19T19:09:59.516Z,12.57
2023-05-19T19:12:26.821Z,14.13
2023-05-19T19:14:54.656Z,13.48
2023-05-19T19:17:22.257Z,12.82
2023-05-19T19:19:50.024Z,10.52
2023-05-19T19:22:17.521Z,10.88
2023-05-19T19:24:45.647Z,15.55
2023-05-19T19:27:13.401Z,13.95
2023-05-19T19:29:40.830Z,13.15
2023-05-19T19:32:08.621Z,13.32
2023-05-19T19:34:36.063Z,14.98
2023-05-19T19:37:04.055Z,14.65
2023-05-19T19:39:31.724Z,16.50
2023-05-19T19:41:59.002Z,17.35
2023-05-19T19:44:26.335Z,20.12
2023-05-19T19:46:54.067Z,19.35
2023-05-19T19:49:21.523Z,16.65
2023-05-19T19:51:49.107Z,16.50
2023-05-19T19:54:16.740Z,14.98
2023-05-19T19:56:57.062Z,15.32
2023-05-19T20:06:02.466Z,15.88
2023-05-19T20:08:29.959Z,15.32
2023-05-19T20:10:57.149Z,14.73
2023-05-19T20:13:24.497Z,14.25
2023-05-19T20:15:52.138Z,13.23
2023-05-19T20:18:19.320Z,12.88
2023-05-19T20:20:46.666Z,13.70
2023-05-19T20:23:16.301Z,13.43
2023-05-19T20:25:58.524Z,14.75
2023-05-19T20:28:30.586Z,17.30
2023-05-19T20:30:57.973Z,13.85
2023-05-19T20:33:25.252Z,13.15
2023-05-19T20:35:52.721Z,12.32
2023-05-19T20:38:19.972Z,13.52
2023-05-19T20:40:47.847Z,13.23
2023-05-19T20:52:42.297Z,11.77
2023-05-19T20:58:40.661Z,10.45
2023-05-19T21:01:08.249Z,10.15
2023-05-19T21:03:35.777Z,11.07
2023-05-19T21:06:03.316Z,12.98
2023-05-19T21:08:30.941Z,17.05
2023-05-19T21:10:58.240Z,14.43
2023-05-19T21:13:25.499Z,11.77
2023-05-19T21:15:53.020Z,10.45
2023-05-19T21:18:20.366Z,10.77
2023-05-19T21:20:47.766Z,11.90
2023-05-19T21:23:15.793Z,10.57
2023-05-19T21:25:45.172Z,11.10
2023-05-19T21:28:12.843Z,10.25
2023-05-19T21:30:40.414Z,9.63
2023-05-19T21:33:07.836Z,10.88
2023-05-19T21:35:35.143Z,10.65
2023-05-19T21:38:12.116Z,11.15
2023-05-19T21:40:49.817Z,10.35
2023-05-19T21:43:17.445Z,10.93
2023-05-19T21:45:45.148Z,10.07
2023-05-19T21:48:12.420Z,9.93
2023-05-19T21:50:40.094Z,9.40
2023-05-19T21:53:07.345Z,9.65
2023-05-19T21:55:34.987Z,9.55
2023-05-19T21:58:02.963Z,8.43
2023-05-19T22:00:30.418Z,8.45
2023-05-19T22:02:58.067Z,7.55
2023-05-19T22:05:25.783Z,7.55
2023-05-19T22:07:52.932Z,7.35
2023-05-19T22:10:20.430Z,7.68
2023-05-19T22:12:47.758Z,8.15
2023-05-19T22:15:15.944Z,7.62
2023-05-19T22:17:43.848Z,7.10
2023-05-19T22:20:11.932Z,6.78
2023-05-19T22:22:39.159Z,6.53
2023-05-19T22:25:07.201Z,6.45
2023-05-19T22:27:34.479Z,8.77
2023-05-19T22:30:01.778Z,7.03
2023-05-19T22:32:30.466Z,7.43
2023-05-19T22:34:57.682Z,6.53
2023-05-19T22:37:24.943Z,5.97
2023-05-19T22:39:52.465Z,6.80
2023-05-19T22:42:19.750Z,6.45
2023-05-19T22:44:46.977Z,6.97
2023-05-19T22:47:15.090Z,6.70
2023-05-19T22:56:35.888Z,6.80
2023-05-19T22:59:03.426Z,7.57
2023-05-19T23:01:30.731Z,7.28
2023-05-19T23:03:58.045Z,8.23
2023-05-19T23:06:25.790Z,7.82
2023-05-19T23:09:01.143Z,7.80
2023-05-19T23:11:28.658Z,7.15
2023-05-19T23:13:56.057Z,7.15
2023-05-19T23:16:23.337Z,8.38
2023-05-19T23:18:50.987Z,8.73
2023-05-19T23:21:18.284Z,8.07
2023-05-19T23:23:45.615Z,7.57
2023-05-19T23:26:16.221Z,7.37
2023-05-19T23:28:43.681Z,7.43
2023-05-19T23:31:10.993Z,7.72
2023-05-19T23:33:38.655Z,7.10
2023-05-19T23:36:10.214Z,8.05
2023-05-19T23:38:37.867Z,7.45
2023-05-19T23:41:05.664Z,7.47
2023-05-19T23:43:32.991Z,9.05
2023-05-19T23:46:00.615Z,6.90
2023-05-19T23:48:29.273Z,7.82
2023-05-19T23:50:57.649Z,8.23
2023-05-19T23:53:25.202Z,7.60
2023-05-19T23:55:52.729Z,8.13
2023-05-19T23:58:20.006Z,7.55
